Time;durP1;ratioP1;P1;durP2;ratioP2;P2;SDS_P1;SDS_P2;PMS_P1;PMS_P2;Temp;Humidity;BMP_temperature;BMP_pressure;BME280_temperature;BME280_humidity;BME280_pressure;Samples;Min_cycle;Max_cycle;Signal;HPM_P1;HPM_P2
2022/08/03 00:02:24;;;;;;;8.02;1.55;;;20.60;99.90;;;;;;5092456;28;20024;-60
2022/08/03 00:04:50;;;;;;;7.88;1.88;;;20.60;99.90;;;;;;5092722;28;20532;-60
2022/08/03 00:07:15;;;;;;;9.60;2.10;;;20.60;99.90;;;;;;5092441;28;20459;-58
2022/08/03 00:09:41;;;;;;;6.05;1.50;;;20.60;99.90;;;;;;5092496;28;20027;-59
2022/08/03 00:12:07;;;;;;;8.90;1.67;;;20.50;99.90;;;;;;5092339;28;20565;-60
2022/08/03 00:14:33;;;;;;;8.82;1.45;;;20.40;99.90;;;;;;5092370;28;20032;-60
2022/08/03 00:16:59;;;;;;;5.15;1.65;;;20.40;99.90;;;;;;5092245;28;20145;-59
2022/08/03 00:19:25;;;;;;;9.48;1.75;;;20.40;99.90;;;;;;5092664;28;20036;-60
2022/08/03 00:21:50;;;;;;;9.85;1.50;;;20.50;99.90;;;;;;5092104;28;20028;-60
2022/08/03 00:24:16;;;;;;;9.68;1.95;;;20.40;99.90;;;;;;5092090;28;20051;-59
2022/08/03 00:26:41;;;;;;;8.30;1.60;;;20.30;99.90;;;;;;5090806;28;20043;-59
2022/08/03 00:29:07;;;;;;;6.82;1.60;;;20.30;99.90;;;;;;5092494;28;20036;-60
2022/08/03 00:31:33;;;;;;;5.10;1.40;;;20.20;99.90;;;;;;5091756;28;20028;-60
2022/08/03 00:33:58;;;;;;;3.50;1.40;;;20.20;99.90;;;;;;5091925;28;20089;-59
2022/08/03 00:36:24;;;;;;;7.63;1.98;;;20.20;99.90;;;;;;5091905;28;20047;-59
2022/08/03 00:38:50;;;;;;;7.80;2.10;;;20.20;99.90;;;;;;5091957;28;20389;-60
2022/08/03 00:41:15;;;;;;;5.47;1.60;;;20.20;99.90;;;;;;5091704;28;20024;-59
2022/08/03 00:43:41;;;;;;;7.88;1.50;;;20.20;99.90;;;;;;5091714;28;20385;-61
2022/08/03 00:46:07;;;;;;;8.07;1.67;;;20.10;99.90;;;;;;5091478;28;20051;-59
2022/08/03 00:48:32;;;;;;;7.90;1.83;;;20.10;99.90;;;;;;5091721;28;20415;-60
2022/08/03 00:50:58;;;;;;;6.93;1.88;;;20.10;99.90;;;;;;5091404;28;20122;-59
2022/08/03 00:53:24;;;;;;;8.60;1.95;;;20.10;99.90;;;;;;5091851;28;20491;-60
2022/08/03 00:55:50;;;;;;;8.65;1.80;;;20.10;99.90;;;;;;5091385;28;20024;-58
2022/08/03 00:58:15;;;;;;;7.97;1.80;;;20.10;99.90;;;;;;5091402;28;20024;-59
2022/08/03 01:00:41;;;;;;;6.68;1.50;;;20.00;99.90;;;;;;5090436;28;20040;-61
2022/08/03 01:03:09;;;;;;;7.13;1.45;;;19.90;99.90;;;;;;5091883;28;20028;-59
2022/08/03 01:05:46;;;;;;;7.65;1.50;;;19.90;99.90;;;;;;5092059;28;20616;-59
2022/08/03 01:08:28;;;;;;;7.75;1.92;;;20.00;99.90;;;;;;5092549;28;20016;-60
2022/08/03 01:11:02;;;;;;;6.32;1.70;;;20.00;99.90;;;;;;5091502;28;20028;-60
2022/08/03 01:13:38;;;;;;;4.70;1.35;;;20.00;99.90;;;;;;5091679;28;20072;-61
2022/08/03 01:16:16;;;;;;;7.35;1.77;;;20.00;99.90;;;;;;5091913;28;20233;-61
2022/08/03 01:18:57;;;;;;;9.23;1.67;;;20.00;99.90;;;;;;5091954;28;20028;-60
2022/08/03 01:21:39;;;;;;;10.38;1.90;;;20.00;99.90;;;;;;5091451;28;20039;-59
2022/08/03 01:24:32;;;;;;;6.25;1.55;;;20.00;99.90;;;;;;5091124;28;20024;-59
2022/08/03 01:27:14;;;;;;;11.02;1.90;;;20.00;99.90;;;;;;5091216;28;20466;-60
2022/08/03 01:30:03;;;;;;;7.07;1.65;;;19.80;99.90;;;;;;5091469;28;20079;-59
2022/08/03 01:32:51;;;;;;;9.93;2.30;;;19.80;99.90;;;;;;5091387;28;20036;-59
2022/08/03 01:35:25;;;;;;;6.65;1.67;;;19.80;99.90;;;;;;5090860;28;20106;-59
2022/08/03 01:37:57;;;;;;;6.50;1.85;;;19.70;99.90;;;;;;5091076;28;20040;-59
2022/08/03 01:40:26;;;;;;;8.18;1.85;;;19.80;99.90;;;;;;5090892;28;20036;-59
2022/08/03 01:42:54;;;;;;;5.57;1.45;;;19.80;99.90;;;;;;5091161;28;20432;-60
2022/08/03 01:45:21;;;;;;;9.13;1.70;;;19.80;99.90;;;;;;5095072;28;20035;-60
2022/08/03 01:47:48;;;;;;;9.63;1.77;;;19.80;99.90;;;;;;5095048;28;20016;-59
2022/08/03 01:50:17;;;;;;;10.57;2.17;;;19.80;99.90;;;;;;5095190;28;20024;-59
2022/08/03 01:52:44;;;;;;;8.82;2.00;;;19.70;99.90;;;;;;5094974;28;20544;-59
2022/08/03 01:55:12;;;;;;;6.32;1.50;;;19.60;99.90;;;;;;5095055;28;20500;-59
2022/08/03 01:57:42;;;;;;;8.77;1.67;;;19.60;99.90;;;;;;5094900;28;20384;-60
2022/08/03 02:00:08;;;;;;;8.43;1.83;;;19.70;99.90;;;;;;5094788;28;20040;-60
2022/08/03 02:02:36;;;;;;;10.30;2.22;;;19.60;99.90;;;;;;5094674;28;20039;-60
2022/08/03 02:05:05;;;;;;;9.27;1.85;;;19.60;99.90;;;;;;5093422;28;20024;-60
2022/08/03 02:07:33;;;;;;;9.43;2.10;;;19.60;99.90;;;;;;5095081;28;20500;-60
2022/08/03 02:10:01;;;;;;;9.18;2.15;;;19.70;99.90;;;;;;5094865;28;20064;-60
2022/08/03 02:12:31;;;;;;;7.57;2.00;;;19.80;99.90;;;;;;5094471;28;20476;-60
2022/08/03 02:14:58;;;;;;;9.80;2.28;;;19.80;99.90;;;;;;5094686;28;20036;-60
2022/08/03 02:17:26;;;;;;;10.02;1.80;;;19.70;99.90;;;;;;5093458;28;20123;-59
2022/08/03 02:19:53;;;;;;;7.18;1.88;;;19.70;99.90;;;;;;5094655;28;20049;-59
2022/08/03 02:22:20;;;;;;;10.32;2.60;;;19.70;99.90;;;;;;5093252;28;20384;-59
2022/08/03 02:24:46;;;;;;;8.75;2.70;;;19.70;99.90;;;;;;5092993;28;20028;-59
2022/08/03 02:27:24;;;;;;;7.90;2.15;;;19.60;99.90;;;;;;5094508;28;20361;-59
2022/08/03 02:30:04;;;;;;;12.35;2.22;;;19.60;99.90;;;;;;5094541;28;20103;-59
2022/08/03 02:32:34;;;;;;;8.95;2.15;;;19.50;99.90;;;;;;5094389;28;20020;-59
2022/08/03 02:35:02;;;;;;;8.43;2.33;;;19.40;99.90;;;;;;5094463;28;20035;-59
2022/08/03 02:37:33;;;;;;;7.50;2.53;;;19.40;99.90;;;;;;5093832;28;20445;-60
2022/08/03 02:40:02;;;;;;;8.90;2.10;;;19.30;99.90;;;;;;5094743;28;20052;-60
2022/08/03 02:42:29;;;;;;;5.95;2.30;;;19.30;99.90;;;;;;5094212;28;20024;-60
2022/08/03 02:44:57;;;;;;;10.02;2.10;;;19.30;99.90;;;;;;5094039;28;20051;-60
2022/08/03 02:47:26;;;;;;;8.77;2.03;;;19.40;99.90;;;;;;5093854;28;20473;-59
2022/08/03 02:49:54;;;;;;;7.53;2.17;;;19.20;99.90;;;;;;5094169;28;20473;-59
2022/08/03 02:52:24;;;;;;;8.40;2.03;;;19.10;99.90;;;;;;5094176;28;20093;-59
2022/08/03 02:54:53;;;;;;;11.68;2.13;;;18.90;99.90;;;;;;5094056;28;20422;-59
2022/08/03 02:57:22;;;;;;;10.25;2.40;;;18.90;99.90;;;;;;5093862;28;20028;-59
2022/08/03 02:59:48;;;;;;;12.55;2.42;;;19.00;99.90;;;;;;5093959;28;20144;-58
2022/08/03 03:02:15;;;;;;;15.00;2.47;;;19.00;99.90;;;;;;5093577;28;20023;-58
2022/08/03 03:04:42;;;;;;;10.88;2.05;;;19.10;99.90;;;;;;5093770;28;20024;-58
2022/08/03 03:07:12;;;;;;;9.98;2.80;;;19.10;99.90;;;;;;5093618;28;20044;-59
2022/08/03 03:09:37;;;;;;;6.95;1.80;;;19.10;99.90;;;;;;5093851;28;20380;-59
2022/08/03 03:12:05;;;;;;;7.03;2.00;;;19.00;99.90;;;;;;5093513;28;20031;-59
2022/08/03 03:14:32;;;;;;;7.38;2.38;;;19.00;99.90;;;;;;5093274;28;20123;-58
2022/08/03 03:16:58;;;;;;;5.72;2.00;;;19.00;99.90;;;;;;5093406;28;20061;-59
2022/08/03 03:19:25;;;;;;;9.43;2.15;;;19.00;99.90;;;;;;5092263;28;20515;-59
2022/08/03 03:21:52;;;;;;;8.65;2.65;;;19.00;99.90;;;;;;5093322;28;20031;-59
2022/08/03 03:24:17;;;;;;;11.88;2.17;;;19.00;99.90;;;;;;5093156;28;20038;-58
2022/08/03 03:26:43;;;;;;;13.27;2.45;;;19.00;99.90;;;;;;5093339;28;20098;-58
2022/08/03 03:29:09;;;;;;;8.23;2.20;;;19.00;99.90;;;;;;5093810;28;20113;-59
2022/08/03 03:31:36;;;;;;;9.93;2.30;;;19.10;99.90;;;;;;5092984;28;20520;-58
2022/08/03 03:34:01;;;;;;;9.68;2.55;;;19.10;99.90;;;;;;5093221;28;20020;-58
2022/08/03 03:36:27;;;;;;;9.50;2.50;;;19.10;99.90;;;;;;5092942;28;20027;-58
2022/08/03 03:38:53;;;;;;;5.40;2.50;;;19.10;99.90;;;;;;5091857;28;20036;-59
2022/08/03 03:41:18;;;;;;;8.68;2.30;;;19.00;99.90;;;;;;5091711;28;20055;-59
2022/08/03 03:43:44;;;;;;;13.80;2.50;;;19.00;99.90;;;;;;5093187;28;20028;-59
2022/08/03 03:46:13;;;;;;;10.82;2.45;;;19.00;99.90;;;;;;5091423;28;20105;-59
2022/08/03 03:48:39;;;;;;;10.10;2.65;;;19.00;99.90;;;;;;5093166;28;20141;-58
2022/08/03 03:51:06;;;;;;;8.43;2.17;;;18.90;99.90;;;;;;5092767;28;20444;-59
2022/08/03 03:53:31;;;;;;;11.32;2.78;;;18.80;99.90;;;;;;5092971;28;20385;-59
2022/08/03 03:55:57;;;;;;;12.55;2.58;;;18.70;99.90;;;;;;5092704;28;20020;-59
2022/08/03 03:58:23;;;;;;;8.25;2.10;;;18.80;99.90;;;;;;5092673;28;20477;-58
2022/08/03 04:00:49;;;;;;;11.68;2.38;;;18.70;99.90;;;;;;5092604;28;20110;-58
2022/08/03 04:03:15;;;;;;;10.85;2.70;;;18.80;99.90;;;;;;5092657;28;20042;-59
2022/08/03 04:11:33;;;;;;;8.82;2.70;;;18.80;99.90;;;;;;5092796;28;20081;-59
2022/08/03 04:14:09;;;;;;;10.55;2.67;;;18.80;99.90;;;;;;5092391;28;20509;-60
2022/08/03 04:16:38;;;;;;;10.52;2.63;;;18.80;99.90;;;;;;5092298;28;20032;-60
2022/08/03 04:19:10;;;;;;;12.10;2.75;;;18.70;99.90;;;;;;5092404;28;20539;-59
2022/08/03 04:21:44;;;;;;;18.77;2.95;;;18.70;99.90;;;;;;5092550;28;20028;-59
2022/08/03 04:24:12;;;;;;;10.23;3.25;;;18.70;99.90;;;;;;5092037;28;20489;-59
2022/08/03 04:26:40;;;;;;;13.57;2.67;;;18.70;99.90;;;;;;5092289;28;20092;-59
2022/08/03 04:29:08;;;;;;;8.30;2.50;;;18.70;99.90;;;;;;5092269;28;20026;-59
2022/08/03 04:31:35;;;;;;;13.00;2.55;;;18.70;99.90;;;;;;5091743;28;20032;-58
2022/08/03 04:34:02;;;;;;;11.15;2.92;;;18.70;99.90;;;;;;5092649;28;20024;-59
2022/08/03 04:36:32;;;;;;;11.90;2.10;;;18.70;99.90;;;;;;5091755;28;20060;-58
2022/08/03 04:39:05;;;;;;;8.77;2.63;;;18.70;99.90;;;;;;5091937;28;20023;-58
2022/08/03 04:41:32;;;;;;;6.47;2.33;;;18.70;99.90;;;;;;5091517;28;20385;-58
2022/08/03 04:43:59;;;;;;;12.85;2.60;;;18.70;99.90;;;;;;5091796;28;20016;-59
2022/08/03 04:46:36;;;;;;;9.27;2.53;;;18.70;99.90;;;;;;5091523;28;20107;-59
2022/08/03 04:49:02;;;;;;;7.07;2.17;;;18.70;99.90;;;;;;5091895;28;20500;-59
2022/08/03 04:51:28;;;;;;;11.68;2.63;;;18.80;99.90;;;;;;5091555;28;20027;-59
2022/08/03 04:53:54;;;;;;;8.15;2.50;;;18.90;99.90;;;;;;5091763;28;20492;-60
2022/08/03 04:56:20;;;;;;;11.05;2.30;;;18.90;99.90;;;;;;5091426;28;20107;-59
2022/08/03 04:58:45;;;;;;;8.15;2.28;;;19.00;99.90;;;;;;5091711;28;20087;-59
2022/08/03 05:01:11;;;;;;;8.48;2.05;;;19.00;99.90;;;;;;5091794;28;20428;-59
2022/08/03 05:03:37;;;;;;;8.85;2.53;;;19.00;99.90;;;;;;5091633;28;20122;-60
2022/08/03 05:06:02;;;;;;;9.45;2.85;;;19.10;99.90;;;;;;5091679;28;20111;-58
2022/08/03 05:08:28;;;;;;;7.97;2.35;;;19.10;99.90;;;;;;5091595;28;20059;-58
2022/08/03 05:10:54;;;;;;;5.90;2.28;;;19.20;99.90;;;;;;5092098;28;20111;-59
2022/08/03 05:13:20;;;;;;;6.82;2.45;;;19.30;99.90;;;;;;5091443;28;20024;-59
2022/08/03 05:15:45;;;;;;;10.90;2.53;;;19.40;99.90;;;;;;5091291;28;20032;-59
2022/08/03 05:18:11;;;;;;;8.82;2.70;;;19.40;99.90;;;;;;5090743;28;20026;-59
2022/08/03 05:20:37;;;;;;;7.97;2.53;;;19.50;99.90;;;;;;5091755;28;20118;-59
2022/08/03 05:23:03;;;;;;;7.65;2.20;;;19.50;99.90;;;;;;5091355;28;20099;-59
2022/08/03 05:25:29;;;;;;;9.73;2.72;;;19.50;99.90;;;;;;5091195;28;20024;-59
2022/08/03 05:27:55;;;;;;;7.88;2.45;;;19.40;99.90;;;;;;5090077;28;20400;-59
2022/08/03 05:30:20;;;;;;;7.53;2.60;;;19.50;99.90;;;;;;5089771;28;20028;-59
2022/08/03 05:32:46;;;;;;;9.48;3.33;;;19.40;99.90;;;;;;5091050;28;20126;-59
2022/08/03 05:35:12;;;;;;;12.75;3.13;;;19.50;99.90;;;;;;5090852;28;20024;-59
2022/08/03 05:37:38;;;;;;;7.10;2.65;;;19.50;99.90;;;;;;5091097;28;20103;-59
2022/08/03 05:40:04;;;;;;;7.22;2.60;;;19.50;99.90;;;;;;5091101;28;20035;-59
2022/08/03 05:42:30;;;;;;;8.10;2.45;;;19.60;99.90;;;;;;5090790;28;20032;-59
2022/08/03 05:44:55;;;;;;;7.65;2.83;;;19.60;99.90;;;;;;5090967;28;20036;-59
2022/08/03 05:47:21;;;;;;;8.93;2.58;;;19.70;99.90;;;;;;5090367;28;20025;-59
2022/08/03 05:49:47;;;;;;;7.85;2.75;;;19.80;99.90;;;;;;5090147;28;20436;-58
2022/08/03 05:52:12;;;;;;;6.70;2.47;;;19.80;99.90;;;;;;5090786;28;20090;-57
2022/08/03 05:54:38;;;;;;;8.48;2.53;;;19.80;99.90;;;;;;5090826;28;20385;-59
2022/08/03 05:57:04;;;;;;;11.02;2.60;;;19.90;99.90;;;;;;5089563;28;20028;-60
2022/08/03 05:59:29;;;;;;;4.30;2.05;;;19.90;99.90;;;;;;5090744;28;20105;-57
2022/08/03 06:01:55;;;;;;;7.45;2.10;;;20.00;99.90;;;;;;5090695;28;20389;-59
2022/08/03 06:04:20;;;;;;;11.20;2.45;;;20.00;99.90;;;;;;5091068;28;20120;-58
2022/08/03 06:06:47;;;;;;;7.00;2.20;;;20.00;99.90;;;;;;5091128;28;20051;-59
2022/08/03 06:09:12;;;;;;;10.20;2.50;;;20.10;99.90;;;;;;5090623;28;20085;-58
2022/08/03 06:11:40;;;;;;;9.60;2.00;;;20.10;99.90;;;;;;5090597;28;20024;-58
2022/08/03 06:14:05;;;;;;;7.63;2.30;;;20.10;99.90;;;;;;5090555;28;20057;-59
2022/08/03 06:16:32;;;;;;;10.35;2.78;;;20.20;99.90;;;;;;5090661;28;20024;-58
2022/08/03 06:18:58;;;;;;;7.07;2.20;;;20.20;99.90;;;;;;5090646;28;20031;-58
2022/08/03 06:21:23;;;;;;;12.60;3.40;;;20.30;99.90;;;;;;5089080;28;20036;-58
2022/08/03 06:23:49;;;;;;;14.48;3.30;;;20.30;99.90;;;;;;5089554;28;20385;-58
2022/08/03 06:26:15;;;;;;;11.45;2.33;;;20.40;99.90;;;;;;5090502;28;20042;-58
2022/08/03 06:28:43;;;;;;;11.95;2.80;;;20.40;99.90;;;;;;5090812;28;20020;-59
2022/08/03 06:31:08;;;;;;;8.98;2.33;;;20.50;99.90;;;;;;5094172;28;20156;-58
2022/08/03 06:33:34;;;;;;;12.27;2.28;;;20.60;99.90;;;;;;5094354;28;20042;-58
2022/08/03 06:35:59;;;;;;;11.88;3.10;;;20.70;99.90;;;;;;5092940;28;20028;-60
2022/08/03 06:38:25;;;;;;;9.30;2.42;;;20.90;99.90;;;;;;5094467;28;20035;-58
2022/08/03 06:40:51;;;;;;;8.77;2.30;;;21.10;99.90;;;;;;5085510;28;20476;-59
2022/08/03 06:43:16;;;;;;;7.03;2.17;;;21.20;99.90;;;;;;5089231;28;20481;-58
2022/08/03 06:45:42;;;;;;;10.38;2.53;;;21.10;99.90;;;;;;5092156;28;20020;-58
2022/08/03 06:48:09;;;;;;;11.48;2.08;;;21.20;99.90;;;;;;5094435;28;20024;-60
2022/08/03 06:50:37;;;;;;;6.63;1.92;;;21.30;99.90;;;;;;5093850;28;20304;-60
2022/08/03 06:53:04;;;;;;;6.28;2.10;;;21.30;99.90;;;;;;5093620;28;20032;-61
2022/08/03 06:55:31;;;;;;;10.27;2.22;;;21.30;99.90;;;;;;5092441;28;20039;-60
2022/08/03 06:57:57;;;;;;;9.93;1.83;;;21.40;99.90;;;;;;5094275;28;20447;-59
2022/08/03 07:00:23;;;;;;;10.50;2.20;;;21.60;99.90;;;;;;5093595;28;20128;-59
2022/08/03 07:02:49;;;;;;;7.65;2.03;;;21.80;99.90;;;;;;5090529;28;20393;-59
2022/08/03 07:05:15;;;;;;;9.32;1.90;;;21.80;99.90;;;;;;5093560;28;20492;-59
2022/08/03 07:07:41;;;;;;;6.85;1.85;;;22.40;99.90;;;;;;5093833;28;20031;-60
2022/08/03 07:10:08;;;;;;;9.10;1.83;;;23.30;99.90;;;;;;5094169;28;20095;-60
2022/08/03 07:12:34;;;;;;;9.68;1.85;;;24.60;99.90;;;;;;5083143;28;20036;-61
2022/08/03 07:15:00;;;;;;;11.02;2.10;;;25.80;99.90;;;;;;5086906;28;20110;-61
2022/08/03 07:17:31;;;;;;;10.50;1.63;;;26.20;99.90;;;;;;5093410;28;20369;-60
2022/08/03 07:19:57;;;;;;;9.98;1.60;;;26.70;99.90;;;;;;5093999;28;20032;-60
2022/08/03 07:22:23;;;;;;;7.75;1.30;;;27.10;99.90;;;;;;5083453;28;20024;-60
2022/08/03 07:24:49;;;;;;;10.45;1.83;;;27.10;99.90;;;;;;5072930;28;20035;-60
2022/08/03 07:27:15;;;;;;;5.57;1.30;;;26.90;99.90;;;;;;5073168;28;20075;-61
2022/08/03 07:29:40;;;;;;;10.18;2.17;;;26.90;99.90;;;;;;5073300;28;20055;-61
2022/08/03 07:32:06;;;;;;;5.13;1.85;;;27.10;99.90;;;;;;5078489;28;20047;-60
2022/08/03 07:34:32;;;;;;;5.18;1.50;;;27.40;99.90;;;;;;5093416;28;20449;-60
2022/08/03 07:36:57;;;;;;;8.80;1.80;;;27.70;99.90;;;;;;5090489;28;20029;-60
2022/08/03 07:39:23;;;;;;;9.20;1.83;;;28.00;99.90;;;;;;5076354;28;20033;-61
2022/08/03 07:41:50;;;;;;;9.20;1.60;;;28.40;99.90;;;;;;5071568;28;20024;-61
2022/08/03 07:44:19;;;;;;;9.05;2.08;;;28.50;99.90;;;;;;5071541;28;20024;-62
2022/08/03 07:46:45;;;;;;;6.40;1.33;;;29.00;99.90;;;;;;5072637;28;20032;-61
2022/08/03 07:49:11;;;;;;;7.57;1.70;;;28.80;99.90;;;;;;5072565;28;20028;-61
2022/08/03 07:51:37;;;;;;;11.88;1.92;;;28.20;99.90;;;;;;5072539;28;20039;-62
2022/08/03 07:54:02;;;;;;;8.07;1.75;;;27.80;99.90;;;;;;5071376;28;20577;-61
2022/08/03 07:56:28;;;;;;;6.80;1.50;;;27.90;99.90;;;;;;5071107;28;20025;-61
2022/08/03 07:58:55;;;;;;;9.10;1.88;;;28.40;99.90;;;;;;5072253;28;20048;-61
2022/08/03 08:01:21;;;;;;;6.53;1.27;;;28.40;99.90;;;;;;5071465;28;20039;-61
2022/08/03 08:03:47;;;;;;;10.07;1.70;;;27.90;99.90;;;;;;5072366;28;20029;-61
2022/08/03 08:06:13;;;;;;;15.25;1.85;;;27.80;99.90;;;;;;5072236;28;20032;-61
2022/08/03 08:08:39;;;;;;;9.93;1.92;;;28.10;99.90;;;;;;5072192;28;20025;-61
2022/08/03 08:11:05;;;;;;;6.72;1.70;;;29.40;99.90;;;;;;5072054;28;20047;-61
2022/08/03 08:13:32;;;;;;;8.65;1.70;;;29.60;99.90;;;;;;5072004;28;20024;-61
2022/08/03 08:15:58;;;;;;;8.57;1.55;;;29.80;99.90;;;;;;5072101;28;20024;-62
2022/08/03 08:18:24;;;;;;;4.85;1.48;;;29.70;99.90;;;;;;5071898;28;20025;-62
2022/08/03 08:20:50;;;;;;;9.18;1.98;;;29.10;99.90;;;;;;5071824;28;20025;-61
2022/08/03 08:23:21;;;;;;;22.00;2.42;;;29.40;99.90;;;;;;5071743;28;20024;-61
2022/08/03 08:25:47;;;;;;;5.43;1.88;;;29.70;99.90;;;;;;5071587;28;20111;-61
2022/08/03 08:28:13;;;;;;;8.38;1.77;;;30.10;99.90;;;;;;5074141;28;20118;-61
2022/08/03 08:30:39;;;;;;;10.43;1.80;;;30.80;99.90;;;;;;5071712;28;20040;-61
2022/08/03 08:33:04;;;;;;;9.38;1.90;;;31.40;99.30;;;;;;5071607;28;20369;-61
2022/08/03 08:35:30;;;;;;;9.95;1.85;;;30.90;99.70;;;;;;5071840;28;20029;-61
2022/08/03 08:37:55;;;;;;;10.73;2.03;;;30.40;99.90;;;;;;5079182;28;20028;-61
2022/08/03 08:40:21;;;;;;;9.68;1.80;;;30.60;99.60;;;;;;5090611;28;20028;-61
2022/08/03 08:42:47;;;;;;;8.98;1.95;;;30.10;99.90;;;;;;5092216;28;20039;-61
2022/08/03 08:45:14;;;;;;;8.95;1.80;;;30.30;99.90;;;;;;5092017;28;20111;-61
2022/08/03 08:47:44;;;;;;;11.35;1.55;;;30.00;99.70;;;;;;5072351;28;20016;-61
2022/08/03 08:50:11;;;;;;;11.65;2.22;;;30.40;99.90;;;;;;5070237;28;20064;-61
2022/08/03 08:52:40;;;;;;;6.05;1.42;;;30.90;99.10;;;;;;5072428;28;20038;-62
2022/08/03 08:55:09;;;;;;;7.93;1.38;;;30.70;99.10;;;;;;5071528;28;20033;-61
2022/08/03 08:57:37;;;;;;;7.85;1.85;;;30.60;98.50;;;;;;5071281;28;20032;-61
2022/08/03 09:00:07;;;;;;;10.45;1.88;;;30.20;99.90;;;;;;5071170;28;20040;-61
2022/08/03 09:02:33;;;;;;;13.65;1.83;;;30.50;99.60;;;;;;5089447;28;20403;-62
2022/08/03 09:05:00;;;;;;;9.13;1.90;;;31.00;99.30;;;;;;5090314;28;20496;-61
2022/08/03 09:07:27;;;;;;;9.05;2.10;;;30.70;98.50;;;;;;5091187;28;20031;-61
2022/08/03 09:09:52;;;;;;;7.93;1.55;;;30.90;98.20;;;;;;5091150;28;20022;-61
2022/08/03 09:12:18;;;;;;;7.90;1.88;;;31.20;97.10;;;;;;5091087;28;20032;-64
2022/08/03 09:14:44;;;;;;;8.23;1.80;;;31.40;96.60;;;;;;5091197;28;20062;-61
2022/08/03 09:17:09;;;;;;;7.00;1.42;;;31.20;97.00;;;;;;5091650;28;20032;-61
2022/08/03 09:19:35;;;;;;;8.57;1.80;;;31.30;96.20;;;;;;5091511;28;20016;-61
2022/08/03 09:22:14;;;;;;;8.02;1.92;;;31.00;96.30;;;;;;5089936;28;20473;-61
2022/08/03 09:24:58;;;;;;;10.27;1.65;;;30.60;97.10;;;;;;5091482;28;20077;-61
2022/08/03 09:27:24;;;;;;;6.57;1.52;;;30.90;96.30;;;;;;5083642;28;20020;-61
2022/08/03 09:29:51;;;;;;;7.22;1.95;;;30.80;96.00;;;;;;5070970;28;20488;-61
2022/08/03 09:32:22;;;;;;;7.88;1.95;;;30.50;97.20;;;;;;5079386;28;20028;-61
2022/08/03 09:34:49;;;;;;;8.00;1.70;;;30.80;96.70;;;;;;5081078;28;20032;-62
2022/08/03 09:37:16;;;;;;;8.13;1.90;;;31.00;96.20;;;;;;5089959;28;20054;-61
2022/08/03 09:39:42;;;;;;;7.32;1.90;;;31.00;96.40;;;;;;5089552;28;20023;-61
2022/08/03 09:42:10;;;;;;;4.80;1.20;;;31.50;95.80;;;;;;5073735;28;20028;-61
2022/08/03 09:44:41;;;;;;;7.68;1.50;;;31.60;94.40;;;;;;5071009;28;20488;-61
2022/08/03 09:47:11;;;;;;;6.93;1.50;;;31.60;94.40;;;;;;5069820;28;20020;-61
2022/08/03 09:49:38;;;;;;;7.45;1.55;;;31.50;94.40;;;;;;5082436;28;20024;-61
2022/08/03 09:52:12;;;;;;;11.75;1.58;;;31.30;95.10;;;;;;5091428;28;20032;-61
2022/08/03 09:54:39;;;;;;;7.90;1.60;;;31.80;94.60;;;;;;5091165;28;20028;-60
2022/08/03 09:57:05;;;;;;;6.53;1.45;;;31.60;94.10;;;;;;5089981;28;20039;-60
2022/08/03 09:59:32;;;;;;;6.80;1.58;;;32.10;94.00;;;;;;5073038;28;20048;-60
2022/08/03 10:01:59;;;;;;;7.25;1.45;;;32.70;92.90;;;;;;5089782;28;20492;-60
2022/08/03 10:04:25;;;;;;;6.53;1.63;;;31.90;94.10;;;;;;5092187;28;20020;-61
2022/08/03 10:07:02;;;;;;;5.97;1.45;;;32.00;93.60;;;;;;5085167;28;20066;-61
2022/08/03 10:09:27;;;;;;;3.22;0.93;;;32.20;93.60;;;;;;5086306;28;20028;-61
2022/08/03 10:11:54;;;;;;;4.68;1.00;;;32.40;93.10;;;;;;5092311;28;20058;-60
2022/08/03 10:14:21;;;;;;;9.80;1.45;;;32.10;93.10;;;;;;5095374;28;20392;-60
2022/08/03 10:16:47;;;;;;;23.50;2.88;;;32.10;93.30;;;;;;5094853;28;20020;-60
2022/08/03 10:19:14;;;;;;;43.33;3.55;;;32.50;93.10;;;;;;5091628;28;20054;-61
2022/08/03 10:21:46;;;;;;;6.53;1.38;;;33.80;91.20;;;;;;5075666;28;20035;-61
2022/08/03 10:24:18;;;;;;;5.80;1.25;;;34.00;90.10;;;;;;5074680;28;20115;-61
2022/08/03 10:26:46;;;;;;;4.90;1.27;;;33.60;90.30;;;;;;5073237;28;20394;-61
2022/08/03 10:29:27;;;;;;;6.03;1.27;;;33.10;90.80;;;;;;5075225;28;20555;-61
2022/08/03 10:31:56;;;;;;;7.03;1.50;;;33.10;90.70;;;;;;5073128;28;20118;-61
2022/08/03 10:34:24;;;;;;;8.38;1.33;;;33.60;90.30;;;;;;5094207;28;20106;-61
2022/08/03 10:36:54;;;;;;;2.35;1.02;;;33.30;90.40;;;;;;5093715;28;20385;-61
2022/08/03 10:39:26;;;;;;;7.00;0.90;;;33.40;90.70;;;;;;5094579;28;20024;-62
2022/08/03 10:41:54;;;;;;;3.78;1.08;;;33.30;90.20;;;;;;5094510;28;20389;-62
2022/08/03 10:44:23;;;;;;;2.30;0.90;;;33.00;90.20;;;;;;5094815;28;20085;-62
2022/08/03 10:46:49;;;;;;;5.38;0.90;;;32.30;91.20;;;;;;5080898;28;20016;-61
2022/08/03 10:49:17;;;;;;;8.13;1.83;;;32.40;91.50;;;;;;5078366;28;20038;-61
2022/08/03 10:51:48;;;;;;;7.63;1.00;;;32.70;91.20;;;;;;5093402;28;20103;-61
2022/08/03 10:57:52;;;;;;;8.98;1.50;;;33.10;91.10;;;;;;5094387;28;20092;-62
2022/08/03 11:00:20;;;;;;;7.50;1.30;;;33.60;89.90;;;;;;5093948;28;20076;-62
2022/08/03 11:03:05;;;;;;;12.43;1.23;;;33.60;90.30;;;;;;5094228;28;20024;-62
2022/08/03 11:05:32;;;;;;;10.02;1.23;;;34.30;87.80;;;;;;5088720;28;20024;-62
2022/08/03 11:08:33;;;;;;;3.55;0.73;;;34.60;86.90;;;;;;5092452;28;20099;-62
2022/08/03 11:11:19;;;;;;;13.68;1.60;;;34.30;85.90;;;;;;5086657;28;20036;-62
2022/08/03 11:13:58;;;;;;;2.65;0.70;;;34.20;86.10;;;;;;5093585;28;20055;-62
2022/08/03 11:16:26;;;;;;;3.28;1.20;;;33.90;87.30;;;;;;5092679;28;20045;-62
2022/08/03 11:19:00;;;;;;;6.85;1.10;;;33.80;86.50;;;;;;5073746;28;20075;-63
2022/08/03 11:21:47;;;;;;;3.33;0.80;;;34.00;86.40;;;;;;5080879;28;20114;-62
2022/08/03 11:24:39;;;;;;;3.35;0.77;;;34.40;86.50;;;;;;5081812;28;20028;-62
2022/08/03 11:27:14;;;;;;;;;;;34.40;85.20;;;;;;5087981;28;20102;-62
2022/08/03 11:30:04;;;;;;;6.32;1.00;;;34.50;84.60;;;;;;5091951;28;20317;-62
2022/08/03 11:32:39;;;;;;;6.65;1.05;;;34.50;84.70;;;;;;5079999;28;20146;-62
2022/08/03 11:35:34;;;;;;;9.38;1.40;;;34.90;82.60;;;;;;5092322;28;20378;-62
2022/08/03 11:41:33;;;;;;;1.67;0.55;;;35.60;79.00;;;;;;5078067;28;20131;-62
2022/08/03 11:43:59;;;;;;;;;;;36.00;79.00;;;;;;5073799;28;20058;-62
2022/08/03 11:46:25;;;;;;;3.83;0.98;;;35.40;79.40;;;;;;5072905;28;19916;-62
2022/08/03 11:48:50;;;;;;;3.55;0.90;;;35.20;77.90;;;;;;5073189;28;20100;-62
2022/08/03 11:51:24;;;;;;;3.35;0.50;;;34.80;80.20;;;;;;5073578;28;20408;-62
2022/08/03 11:53:58;;;;;;;2.40;0.73;;;34.80;79.10;;;;;;5089645;28;20091;-62
2022/08/03 11:56:24;;;;;;;2.05;0.70;;;34.90;78.90;;;;;;5087651;28;20032;-62
2022/08/03 12:02:26;;;;;;;4.15;0.90;;;34.80;79.20;;;;;;5092792;28;20043;-62
2022/08/03 12:04:58;;;;;;;4.50;0.63;;;34.80;78.40;;;;;;5089915;28;20020;-63
2022/08/03 12:07:28;;;;;;;6.25;1.05;;;34.20;79.00;;;;;;5092370;28;20039;-62
2022/08/03 12:10:06;;;;;;;2.72;0.60;;;34.50;78.10;;;;;;5092550;28;20055;-62
2022/08/03 12:12:32;;;;;;;18.83;2.15;;;34.70;78.40;;;;;;5074077;28;20032;-63
2022/08/03 12:14:57;;;;;;;3.40;0.90;;;34.90;78.60;;;;;;5091987;28;20031;-63
2022/08/03 12:17:31;;;;;;;3.83;0.85;;;34.00;79.90;;;;;;5092708;28;20032;-64
2022/08/03 12:19:57;;;;;;;1.70;0.65;;;34.20;81.10;;;;;;5090498;28;20040;-63
2022/08/03 12:22:48;;;;;;;4.22;0.80;;;35.50;77.30;;;;;;5092386;28;20473;-62
2022/08/03 12:25:25;;;;;;;4.57;1.20;;;36.40;75.50;;;;;;5091590;28;20020;-62
2022/08/03 12:27:52;;;;;;;2.28;0.80;;;36.30;73.70;;;;;;5092090;28;20414;-62
2022/08/03 12:30:18;;;;;;;4.63;1.13;;;35.40;75.30;;;;;;5072174;28;20133;-61
2022/08/03 12:32:44;;;;;;;2.20;0.90;;;33.90;77.90;;;;;;5072614;28;20039;-61
2022/08/03 12:35:25;;;;;;;4.25;0.77;;;33.00;79.70;;;;;;5084484;28;20104;-61
2022/08/03 12:37:51;;;;;;;3.85;0.77;;;32.60;82.10;;;;;;5082680;28;20027;-61
2022/08/03 12:40:26;;;;;;;5.05;1.10;;;33.60;81.00;;;;;;5087705;28;20060;-61
2022/08/03 12:42:52;;;;;;;2.47;0.82;;;35.40;76.70;;;;;;5072217;28;20026;-62
2022/08/03 12:45:30;;;;;;;4.45;0.80;;;35.70;75.50;;;;;;5082579;28;20480;-62
2022/08/03 12:47:58;;;;;;;8.57;0.98;;;35.90;74.40;;;;;;5071528;28;20033;-63
2022/08/03 12:50:25;;;;;;;5.05;1.30;;;36.00;73.00;;;;;;5071284;28;20024;-62
2022/08/03 12:52:51;;;;;;;17.58;1.50;;;35.70;74.60;;;;;;5071415;28;20032;-63
2022/08/03 12:55:21;;;;;;;3.10;0.98;;;36.50;73.30;;;;;;5071364;28;20534;-63
2022/08/03 12:57:48;;;;;;;3.63;1.00;;;36.90;71.00;;;;;;5070091;28;20062;-62
2022/08/03 13:00:16;;;;;;;3.72;0.70;;;37.00;69.50;;;;;;5071261;28;20465;-63
2022/08/03 13:02:42;;;;;;;1.42;0.70;;;37.30;70.60;;;;;;5071279;28;20036;-63
2022/08/03 13:05:15;;;;;;;2.50;0.63;;;37.10;68.50;;;;;;5069903;28;20439;-62
2022/08/03 13:07:46;;;;;;;3.25;0.75;;;37.20;69.50;;;;;;5071668;28;20028;-62
2022/08/03 13:10:25;;;;;;;4.90;0.95;;;36.90;70.30;;;;;;5070756;28;20028;-62